createdAt,value
2023-04-14T00:01:17.272Z,92.13751779805722
2023-04-14T00:04:17.413Z,92.55190461916354
2023-04-14T00:07:17.096Z,91.35805143168542
2023-04-14T00:11:15.903Z,90.67220436603688
2023-04-14T00:14:16.342Z,90.70359108357181
2023-04-14T00:17:16.354Z,90.74419810632858
2023-04-14T00:21:16.365Z,92.51754015266879
2023-04-14T00:24:16.767Z,92.15015694782721
2023-04-14T00:27:16.657Z,89.31620607739185
2023-04-14T00:31:16.687Z,87.49515115314651
2023-04-14T00:34:17.149Z,85.77071412870384
2023-04-14T00:37:17.721Z,86.8971924680488
2023-04-14T00:41:15.826Z,88.34774491088608
2023-04-14T00:44:16.255Z,87.87914456491389
2023-04-14T00:47:17.287Z,87.66842803577515
2023-04-14T00:51:17.228Z,89.46201723370235
2023-04-14T00:54:18.858Z,88.61541311992929
2023-04-14T00:57:17.426Z,89.80140360117927
2023-04-14T01:01:16.370Z,90.72341654191824
2023-04-14T01:04:17.417Z,90.40450560799492
2023-04-14T01:07:17.054Z,86.51564924852401
2023-04-14T01:11:26.868Z,88.02422958138679
2023-04-14T01:14:29.474Z,89.10167434628202
2023-04-14T01:17:23.008Z,87.7431659017568
2023-04-14T01:21:19.921Z,86.34529386729616
2023-04-14T01:24:48.644Z,88.50150901492395
2023-04-14T01:27:34.824Z,88.74324157784031
2023-04-14T01:31:23.149Z,89.47293237739117
2023-04-14T01:34:23.002Z,89.60092624573333
2023-04-14T01:37:22.122Z,88.73740935517228
2023-04-14T01:41:20.627Z,89.38426967266818
2023-04-14T01:44:18.621Z,89.29269875274578
2023-04-14T01:47:19.419Z,87.33361940732995
2023-04-14T01:51:19.015Z,83.64957282073448
2023-04-14T01:54:17.969Z,83.23774555906557
2023-04-14T01:57:20.084Z,81.3896683343646
2023-04-14T02:01:18.751Z,85.04125814913604
2023-04-14T02:04:18.345Z,84.34493043954285
2023-04-14T02:07:20.107Z,85.31456952090058
2023-04-14T02:11:17.141Z,83.52906890447768
2023-04-14T02:14:18.434Z,84.72765552551202
2023-04-14T02:17:18.534Z,82.36387714158761
2023-04-14T02:21:19.637Z,85.18070300026884
2023-04-14T02:24:17.004Z,86.52327034589644
2023-04-14T02:27:23.579Z,87.23418458722097
2023-04-14T02:31:24.411Z,87.22785142498381
2023-04-14T02:34:26.138Z,87.72452824148449
2023-04-14T02:37:22.134Z,88.78869032476474
2023-04-14T02:41:22.550Z,88.14173185072273
2023-04-14T02:44:22.221Z,87.82922693526415
2023-04-14T02:47:26.275Z,86.46814612733023
2023-04-14T02:51:18.606Z,87.46307606535767
2023-04-14T02:54:18.515Z,87.8459060001455
2023-04-14T02:57:17.555Z,88.64003385600219
2023-04-14T03:01:18.592Z,90.2916394414905
2023-04-14T03:04:17.969Z,90.75601284970534
2023-04-14T03:07:18.616Z,90.58111203722896
2023-04-14T03:11:18.009Z,90.16761517429178
2023-04-14T03:14:18.348Z,89.2845587366752
2023-04-14T03:17:19.695Z,88.78994675658727
2023-04-14T03:21:19.695Z,88.18947243895082
2023-04-14T03:24:22.299Z,87.22627789209469
2023-04-14T03:27:20.320Z,87.4227058148628
2023-04-14T03:31:26.649Z,87.29654227755607
2023-04-14T03:34:18.971Z,87.42744399199799
2023-04-14T03:37:23.411Z,87.93691381620069
2023-04-14T03:41:18.796Z,87.01080057294756
2023-04-14T03:44:17.941Z,87.40608186974913
2023-04-14T03:47:16.574Z,86.94073265855867
2023-04-14T03:51:17.730Z,86.69375233427486
2023-04-14T03:54:20.311Z,86.22553778871473
2023-04-14T03:57:19.734Z,85.98499169276613
2023-04-14T04:01:18.117Z,85.53081689678143
2023-04-14T04:04:17.759Z,85.29322010570219
2023-04-14T04:07:18.585Z,85.94620756539575
2023-04-14T04:11:20.507Z,85.79575680877272
2023-04-14T04:14:20.265Z,85.61780185634242
2023-04-14T04:17:21.871Z,85.29039578404753
2023-04-14T04:21:18.505Z,85.39520248624314
2023-04-14T04:24:19.032Z,85.7822205273419
2023-04-14T04:27:27.807Z,85.6990150892724
2023-04-14T04:31:16.541Z,85.85420446794247
2023-04-14T04:34:17.003Z,85.92378771820296
2023-04-14T04:37:17.456Z,86.29808996242147
2023-04-14T04:41:21.843Z,86.76445173226712
2023-04-14T04:44:16.337Z,86.59700256615585
2023-04-14T04:47:16.483Z,86.11594023792054
2023-04-14T04:51:18.724Z,86.52117521049347
2023-04-14T04:54:16.584Z,86.24045421503743
2023-04-14T04:57:16.700Z,86.84814652571839
2023-04-14T05:01:17.024Z,87.45446176803642
2023-04-14T05:04:17.425Z,87.86365301219297
2023-04-14T05:07:16.853Z,89.03235168237322
2023-04-14T05:11:15.808Z,89.42745035495321
2023-04-14T05:14:16.368Z,88.12094891675682
2023-04-14T05:17:16.408Z,87.05764288168565
2023-04-14T05:21:16.760Z,90.62297872979273
2023-04-14T05:24:16.664Z,92.1415871045842
2023-04-14T05:27:16.713Z,93.15227453874611
2023-04-14T05:31:16.745Z,93.96840622546814
2023-04-14T05:34:17.074Z,92.4867123293249
2023-04-14T05:37:17.183Z,94.05484163691965
2023-04-14T05:41:16.516Z,95.89098729322178
2023-04-14T05:44:16.850Z,95.82154738389464
2023-04-14T05:47:16.893Z,94.07878363250352
2023-04-14T05:51:16.872Z,93.55530790401636
2023-04-14T05:54:16.742Z,91.11958638927037
2023-04-14T05:57:16.846Z,92.89904043978812
2023-04-14T06:01:16.631Z,94.58652968642296
2023-04-14T06:04:16.958Z,94.75023878783178
2023-04-14T06:07:16.869Z,96.00869024231191
2023-04-14T06:11:16.668Z,96.27336313691208
2023-04-14T06:14:16.994Z,96.92860323888942
2023-04-14T06:17:17.073Z,96.85830503918315
2023-04-14T06:21:16.440Z,96.88967301638202
2023-04-14T06:24:16.981Z,97.02593224530773
2023-04-14T06:27:17.163Z,95.4418161223484
2023-04-14T06:31:16.481Z,94.9765717753271
2023-04-14T06:34:16.669Z,95.90882533809956
2023-04-14T06:37:16.733Z,96.67131652205403
2023-04-14T06:41:16.448Z,97.88705969056605
2023-04-14T06:44:16.707Z,99.2936665959816
2023-04-14T06:47:18.115Z,100
2023-04-14T06:51:17.105Z,100
2023-04-14T06:54:16.855Z,100
2023-04-14T06:57:16.794Z,100
2023-04-14T07:01:16.988Z,100
2023-04-14T07:04:19.445Z,100
2023-04-14T07:07:16.965Z,100
2023-04-14T07:11:16.111Z,100
2023-04-14T07:14:16.449Z,100
2023-04-14T07:17:16.388Z,100
2023-04-14T07:21:16.551Z,100
2023-04-14T07:24:16.836Z,100
2023-04-14T07:27:17.286Z,100
2023-04-14T07:31:16.723Z,100
2023-04-14T07:34:17.790Z,100
2023-04-14T07:37:17.858Z,100
2023-04-14T07:41:17.908Z,100
2023-04-14T07:44:16.614Z,100
2023-04-14T07:47:16.541Z,100
2023-04-14T07:51:16.655Z,92.46268291879042
2023-04-14T07:54:17.177Z,89.03794617093878
2023-04-14T07:57:16.971Z,86.13309198738165
2023-04-14T08:01:17.070Z,86.75921017906171
2023-04-14T08:04:17.055Z,84.4874529131514
2023-04-14T08:07:16.778Z,82.89240796626493
2023-04-14T08:11:16.688Z,81.58156894084462
2023-04-14T08:14:17.086Z,82.0720471332942
2023-04-14T08:17:16.966Z,81.13142280622725
2023-04-14T08:21:16.926Z,82.23788417816615
2023-04-14T08:24:17.007Z,78.40674676619884
2023-04-14T08:27:17.056Z,76.69392546137465
2023-04-14T08:31:16.184Z,80.69062761911738
2023-04-14T08:34:21.036Z,83.14448238296112
2023-04-14T08:37:17.017Z,86.8305843388792
2023-04-14T08:41:19.089Z,88.3913420523348
2023-04-14T08:44:16.975Z,89.66171099959303
2023-04-14T08:47:18.023Z,89.8340812481797
2023-04-14T08:51:27.808Z,91.39708923381664
2023-04-14T08:54:18.380Z,91.27264906328361
2023-04-14T08:57:18.966Z,93.5864503092216
2023-04-14T09:01:15.790Z,92.12880789408162
2023-04-14T09:04:18.280Z,92.23374009672537
2023-04-14T09:07:17.944Z,93.28179955481319
2023-04-14T09:11:16.312Z,93.92034876297667
2023-04-14T09:14:18.482Z,92.51091207964744
2023-04-14T09:17:17.538Z,91.55936628173804
2023-04-14T09:21:31.125Z,88.36364888990194
2023-04-14T09:24:20.663Z,84.82881348028907
2023-04-14T09:27:17.254Z,79.87047985450931
2023-04-14T09:31:17.074Z,78.64080377864607
2023-04-14T09:34:19.036Z,80.50332277286319
2023-04-14T09:37:16.842Z,81.00440550456646
2023-04-14T09:41:17.976Z,77.4729988972867
2023-04-14T09:44:16.789Z,76.43759452202663
2023-04-14T09:47:20.315Z,78.97746970014174
2023-04-14T09:51:16.637Z,75.92942097415167
2023-04-14T09:54:23.049Z,79.97451763431872
2023-04-14T09:57:24.378Z,81.83211939469645
2023-04-14T10:01:18.781Z,84.60329569929735
2023-04-14T10:04:23.205Z,82.23910024658866
2023-04-14T10:07:19.205Z,80.75178531860584
2023-04-14T10:11:19.109Z,74.66907855113014
2023-04-14T10:14:16.597Z,71.47976725314574
2023-04-14T10:17:18.160Z,71.09679537634315
2023-04-14T10:21:17.758Z,70.88761522830227
2023-04-14T10:24:18.248Z,73.98588920663613
2023-04-14T10:27:17.168Z,74.26762742884767
2023-04-14T10:31:25.578Z,76.45582846139509
2023-04-14T10:34:18.383Z,81.5464996742747
2023-04-14T10:37:17.108Z,91.27682665810266
2023-04-14T10:41:16.570Z,92.92567283861104
2023-04-14T10:44:26.117Z,88.82303459549028
2023-04-14T10:47:22.731Z,86.2918467874802
2023-04-14T10:51:17.296Z,92.33498817637398
2023-04-14T10:54:17.951Z,88.42989665259056
2023-04-14T10:57:16.548Z,83.1365283628663
2023-04-14T11:01:27.199Z,85.0974439209901
2023-04-14T11:04:17.353Z,85.91841818916313
2023-04-14T11:07:20.595Z,84.95985392288028
2023-04-14T11:11:16.487Z,85.54746827079128
2023-04-14T11:14:17.791Z,82.61710422218927
2023-04-14T11:17:20.392Z,83.51365716468185
2023-04-14T11:21:17.384Z,84.8776378048805
2023-04-14T11:24:17.689Z,85.10893675427188
2023-04-14T11:27:18.099Z,82.53320769254452
2023-04-14T11:31:16.946Z,84.9827170390465
2023-04-14T11:34:23.470Z,81.19574841049389
2023-04-14T11:37:16.711Z,76.36436737567797
2023-04-14T11:41:16.620Z,72.23894052011232
2023-04-14T11:44:18.075Z,68.25046296047455
2023-04-14T11:47:20.842Z,65.70211728429652
2023-04-14T11:51:18.346Z,65.74911990173162
2023-04-14T11:54:17.191Z,64.4040820580163
2023-04-14T11:57:17.836Z,62.33263688004444
2023-04-14T12:01:22.260Z,65.19185070335156
2023-04-14T12:04:17.855Z,62.03729724418348
2023-04-14T12:07:18.411Z,60.55679594927089
2023-04-14T12:11:17.049Z,61.82236068820121
2023-04-14T12:14:18.029Z,61.42955367979015
2023-04-14T12:17:18.101Z,58.79709128173178
2023-04-14T12:21:18.217Z,58.243051587119695
2023-04-14T12:24:17.481Z,58.5997127032861
2023-04-14T12:27:18.329Z,59.139640329732075
2023-04-14T12:31:26.719Z,57.989612438569566
2023-04-14T12:34:24.445Z,58.70336166574436
2023-04-14T12:37:23.740Z,59.798332039256664
2023-04-14T12:41:21.605Z,59.63948460411572
2023-04-14T12:44:18.662Z,59.886047355388584
2023-04-14T12:47:26.298Z,60.663076658923
2023-04-14T12:51:18.109Z,64.61321796901176
2023-04-14T12:54:16.822Z,62.98334057934178
2023-04-14T12:57:19.262Z,64.75827289864635
2023-04-14T13:01:19.454Z,65.99091192623207
2023-04-14T13:04:17.581Z,65.68690881747898
2023-04-14T13:07:17.423Z,62.563513820136926
2023-04-14T13:11:17.313Z,62.536549942329465
2023-04-14T13:14:17.280Z,62.67102100324365
2023-04-14T13:17:16.806Z,63.38256589341852
2023-04-14T13:21:16.395Z,66.89671734277132
2023-04-14T13:24:16.718Z,71.27104402748147
2023-04-14T13:27:17.188Z,73.49305914025446
2023-04-14T13:31:17.004Z,78.43069701667912
2023-04-14T13:34:17.103Z,73.5267510478924
2023-04-14T13:37:17.074Z,72.14577779455139
2023-04-14T13:41:19.859Z,71.96215191879081
2023-04-14T13:44:18.871Z,71.95532106440373
2023-04-14T13:47:19.176Z,72.64640967160983
2023-04-14T13:51:17.198Z,75.6489372285968
2023-04-14T13:54:17.461Z,76.54681347389092
2023-04-14T13:57:17.411Z,77.83364254392716
2023-04-14T14:01:16.408Z,76.92141849541615
2023-04-14T14:04:16.596Z,74.86421887770324
2023-04-14T14:07:16.594Z,74.41833549841643
2023-04-14T14:11:17.107Z,74.68206703513461
2023-04-14T14:14:16.899Z,75.96409864142315
2023-04-14T14:17:18.080Z,75.82525806463073
2023-04-14T14:21:16.589Z,73.49824128623207
2023-04-14T14:24:16.560Z,72.68046113671589
2023-04-14T14:27:17.016Z,73.80990675781274
2023-04-14T14:31:16.960Z,72.84473123025371
2023-04-14T14:34:18.310Z,67.96330237083271
2023-04-14T14:37:16.930Z,64.69479339720354
2023-04-14T14:41:16.930Z,64.92249603050972
2023-04-14T14:44:18.173Z,65.19422618288692
2023-04-14T14:47:17.899Z,65.50672608343189
2023-04-14T14:51:17.595Z,64.34060003028054
2023-04-14T14:54:16.869Z,61.444969581361725
2023-04-14T14:57:16.780Z,59.118606019281586
2023-04-14T15:01:16.455Z,58.60075633362168
2023-04-14T15:04:17.572Z,58.810581753062664
2023-04-14T15:07:17.103Z,59.87452477442941
2023-04-14T15:11:17.699Z,59.132270594411715
2023-04-14T15:14:17.319Z,57.69970554807187
2023-04-14T15:17:17.510Z,57.169356001754444
2023-04-14T15:21:16.706Z,58.23112582171599
2023-04-14T15:24:17.214Z,57.220689246636645
2023-04-14T15:27:17.131Z,56.48652627824035
2023-04-14T15:31:16.419Z,56.517257084251334
2023-04-14T15:34:16.984Z,56.992475009717694
2023-04-14T15:37:16.818Z,57.0658200114127
2023-04-14T15:41:16.408Z,55.98774733183267
2023-04-14T15:44:17.634Z,55.57474367025122
2023-04-14T15:47:17.051Z,55.68449987725666
2023-04-14T15:51:16.990Z,55.37155766015595
2023-04-14T15:54:17.085Z,55.33348219700737
2023-04-14T15:57:17.170Z,55.29965199064093
2023-04-14T16:01:16.249Z,56.95111786379346
2023-04-14T16:04:16.690Z,58.145222389587765
2023-04-14T16:07:17.259Z,57.80570877467882
2023-04-14T16:11:16.708Z,58.66863152569628
2023-04-14T16:14:16.770Z,58.49712073382379
2023-04-14T16:17:16.682Z,58.62078662561406
2023-04-14T16:21:16.652Z,59.243014471246
2023-04-14T16:24:17.116Z,58.698542095645706
2023-04-14T16:27:17.250Z,58.38236833131493
2023-04-14T16:31:18.050Z,58.45525480625215
2023-04-14T16:34:18.743Z,59.48534791599804
2023-04-14T16:37:17.751Z,58.67777166763207
2023-04-14T16:41:16.642Z,57.7812111784509
2023-04-14T16:44:16.831Z,58.385228137401036
2023-04-14T16:47:16.772Z,58.7622494588982
2023-04-14T16:51:16.188Z,58.169506116786636
2023-04-14T16:54:16.512Z,56.90678181595986
2023-04-14T16:57:16.684Z,56.72238387453879
2023-04-14T17:01:16.684Z,55.46109213515769
2023-04-14T17:04:17.264Z,55.06709586164584
2023-04-14T17:07:17.010Z,57.79263840888063
2023-04-14T17:11:16.113Z,60.96111909002309
2023-04-14T17:14:17.359Z,60.76956577473095
2023-04-14T17:17:16.600Z,61.184785745708716
2023-04-14T17:21:16.238Z,62.939731740481044
2023-04-14T17:24:16.704Z,63.821718333473456
2023-04-14T17:27:16.758Z,64.05069696179291
2023-04-14T17:31:17.031Z,64.67780223892767
2023-04-14T17:34:18.936Z,63.99025209615982
2023-04-14T17:37:17.045Z,63.90864070799548
2023-04-14T17:41:16.761Z,64.02107423042582
2023-04-14T17:44:17.588Z,63.80080359993302
2023-04-14T17:47:17.206Z,63.0828034139137
2023-04-14T17:51:16.363Z,63.70018838295236
2023-04-14T17:54:17.208Z,64.24393455759464
2023-04-14T17:57:17.609Z,63.710749935292796
2023-04-14T18:01:16.798Z,64.11282410572714
2023-04-14T18:04:16.644Z,63.81220750501072
2023-04-14T18:07:17.051Z,63.42784072275536
2023-04-14T18:11:16.377Z,63.1604005032553
2023-04-14T18:14:17.142Z,63.25107322572993
2023-04-14T18:17:17.539Z,63.99209699419639
2023-04-14T18:21:18.482Z,64.73396260651388
2023-04-14T18:31:18.030Z,65.23624936410344
2023-04-14T18:34:18.142Z,64.848724849764
2023-04-14T18:37:17.800Z,64.67705103672624
2023-04-14T18:41:16.842Z,65.78135702336179
2023-04-14T18:44:17.952Z,66.09618441847184
2023-04-14T18:47:18.289Z,66.1333427611753
2023-04-14T18:51:17.084Z,66.85289333568045
2023-04-14T18:54:18.112Z,67.35608230262112
2023-04-14T18:57:18.258Z,67.25458361147383
2023-04-14T19:01:17.650Z,68.03483227139776
2023-04-14T19:04:16.634Z,68.21446120121664
2023-04-14T19:07:17.346Z,68.2000540427053
2023-04-14T19:11:16.783Z,68.33408778273169
2023-04-14T19:14:17.759Z,68.4188158132954
2023-04-14T19:17:17.314Z,68.43810307923782
2023-04-14T19:21:16.893Z,68.39513416005326
2023-04-14T19:24:17.126Z,68.87684172634171
2023-04-14T19:27:19.162Z,69.12796311331293
2023-04-14T19:31:17.730Z,69.39759742611064
2023-04-14T19:34:16.963Z,69.53529538355855
2023-04-14T19:37:17.083Z,70.32883775771161
2023-04-14T19:41:16.274Z,70.44447667230203
2023-04-14T19:44:17.746Z,70.17088816178034
2023-04-14T19:47:16.967Z,70.46838480522733
2023-04-14T19:51:16.260Z,71.28014826809671
2023-04-14T19:54:16.589Z,70.74138782628317
2023-04-14T19:57:17.178Z,70.69483368573394
2023-04-14T20:01:16.606Z,71.8557754683614
2023-04-14T20:04:17.066Z,72.21070272266334
2023-04-14T20:07:16.959Z,71.77964329452564
2023-04-14T20:11:16.254Z,71.47161002042729
2023-04-14T20:14:16.670Z,71.72634892218132
2023-04-14T20:17:16.406Z,72.13580219849925
2023-04-14T20:21:17.415Z,73.27753269490547
2023-04-14T20:24:18.067Z,73.87011946692428
2023-04-14T20:27:17.239Z,73.72228201062075
2023-04-14T20:31:17.017Z,74.20241302650226
2023-04-14T20:34:17.493Z,74.31895693592138
2023-04-14T20:37:18.678Z,74.94093370107602
2023-04-14T20:41:16.847Z,75.61605902842949
2023-04-14T20:44:17.536Z,75.45572309071237
2023-04-14T20:47:17.386Z,75.56828626056235
2023-04-14T20:51:17.219Z,75.44168433398625
2023-04-14T20:54:16.952Z,75.64871949668854
2023-04-14T20:57:17.275Z,76.09842019255768
2023-04-14T21:01:16.953Z,76.66324495967656
2023-04-14T21:04:16.914Z,76.7792639929682
2023-04-14T21:07:17.376Z,76.92274064432137
2023-04-14T21:11:18.083Z,77.39587780327214
2023-04-14T21:15:30.605Z,77.47200043390572
2023-04-14T21:17:16.951Z,77.43125619998598
2023-04-14T21:21:16.573Z,78.02365203585704
2023-04-14T21:24:16.659Z,78.35736349630419
2023-04-14T21:27:17.223Z,78.59762163581719
2023-04-14T21:31:17.754Z,78.71864057774663
2023-04-14T21:34:17.208Z,78.32504293591799
2023-04-14T21:37:17.583Z,78.2798063333894
2023-04-14T21:41:16.531Z,78.83534356520194
2023-04-14T21:44:17.225Z,78.79467846106384
2023-04-14T21:47:16.736Z,78.60290913906583
2023-04-14T21:51:17.219Z,78.32409995372024
2023-04-14T21:54:17.455Z,78.74194377993702
2023-04-14T21:57:17.455Z,79.03638708358642
2023-04-14T22:01:16.862Z,79.1027713358223
2023-04-14T22:04:28.910Z,79.68086779250449
2023-04-14T22:07:17.009Z,80.0763732726155
2023-04-14T22:11:17.417Z,80.2722039299414
2023-04-14T22:14:17.400Z,80.21585933184775
2023-04-14T22:17:17.891Z,80.1893314635899
2023-04-14T22:21:16.338Z,80.33108442269011
2023-04-14T22:24:16.707Z,80.1486448213562
2023-04-14T22:27:17.041Z,80.08763235428775
2023-04-14T22:31:17.103Z,80.42934043976078
2023-04-14T22:34:18.024Z,80.49321753313326
2023-04-14T22:37:17.449Z,80.91680730435517
2023-04-14T22:41:17.699Z,80.89705251222043
2023-04-14T22:44:18.353Z,80.50287871837219
2023-04-14T22:47:17.414Z,80.76867076202763
2023-04-14T22:51:17.052Z,80.61195898296462
2023-04-14T22:54:17.067Z,80.54689488171587
2023-04-14T22:57:17.530Z,80.62754015635029
2023-04-14T23:01:22.500Z,80.95886534126937
2023-04-14T23:04:16.872Z,81.0168001592075
2023-04-14T23:07:16.584Z,81.18118719140621
2023-04-14T23:11:19.762Z,81.50586019326995
2023-04-14T23:14:16.558Z,81.63529438103903
2023-04-14T23:17:16.706Z,81.62210597251945
2023-04-14T23:21:18.241Z,81.55026901198404
2023-04-14T23:24:17.555Z,81.48843746217896
2023-04-14T23:27:17.545Z,81.77866349921408
2023-04-14T23:31:17.692Z,81.70835205501155
2023-04-14T23:34:16.682Z,81.60839081060783
2023-04-14T23:37:16.807Z,81.38640546443932
2023-04-14T23:41:17.811Z,81.16655026950727
2023-04-14T23:44:16.873Z,81.2931695051151
2023-04-14T23:47:16.711Z,81.23632231428898
2023-04-14T23:51:20.098Z,81.25165003765719
2023-04-14T23:54:17.190Z,80.87165634243419
2023-04-14T23:57:17.296Z,81.34043159631989
